Time;durP1;ratioP1;P1;durP2;ratioP2;P2;SDS_P1;SDS_P2;PMS_P1;PMS_P2;Temp;Humidity;BMP_temperature;BMP_pressure;BME280_temperature;BME280_humidity;BME280_pressure;Samples;Min_cycle;Max_cycle;Signal;HPM_P1;HPM_P2
2022/08/01 00:00:01;;;;;;;0.00;0.00;;;;;;;19.87;63.28;101351.34;7345521;19;20086;-62
2022/08/01 00:02:30;;;;;;;0.00;0.00;;;;;;;19.81;63.47;101359.56;7344653;19;20010;-63
2022/08/01 00:04:56;;;;;;;0.00;0.00;;;;;;;19.77;62.80;101357.16;7347778;19;20041;-62
2022/08/01 00:07:22;;;;;;;0.00;0.00;;;;;;;19.42;61.48;101309.44;7357213;19;20026;-63
2022/08/01 00:09:47;;;;;;;0.10;0.10;;;;;;;19.68;61.28;101358.50;7358798;19;20033;-62
2022/08/01 00:12:13;;;;;;;0.00;0.00;;;;;;;19.64;61.92;101356.94;7363355;19;20018;-62
2022/08/01 00:14:38;;;;;;;0.00;0.00;;;;;;;19.62;63.29;101361.47;7363835;19;20007;-62
2022/08/01 00:17:04;;;;;;;0.10;0.10;;;;;;;19.57;63.45;101360.78;7361593;19;20006;-62
2022/08/01 00:19:29;;;;;;;0.10;0.10;;;;;;;19.54;63.97;101350.34;7365023;19;20142;-62
2022/08/01 00:21:54;;;;;;;0.00;0.00;;;;;;;19.47;63.72;101347.16;7362306;19;20609;-63
2022/08/01 00:24:20;;;;;;;0.10;0.10;;;;;;;19.43;66.13;101343.78;7363190;19;20011;-62
2022/08/01 00:26:45;;;;;;;0.10;0.10;;;;;;;19.38;63.05;101337.00;7363919;19;20041;-62
2022/08/01 00:29:11;;;;;;;0.10;0.10;;;;;;;19.33;64.67;101346.97;7363938;19;20016;-62
2022/08/01 00:31:36;;;;;;;0.10;0.10;;;;;;;19.26;65.50;101343.75;7364178;19;20086;-63
2022/08/01 00:34:01;;;;;;;0.10;0.10;;;;;;;19.16;64.83;101340.69;7363837;19;20010;-65
2022/08/01 00:36:27;;;;;;;0.05;0.05;;;;;;;19.12;64.90;101344.41;7362257;19;20307;-62
2022/08/01 00:38:52;;;;;;;0.00;0.00;;;;;;;18.91;63.77;101319.84;7361639;19;20039;-62
2022/08/01 00:41:18;;;;;;;0.10;0.10;;;;;;;18.93;64.08;101336.50;7362072;19;20021;-63
2022/08/01 00:43:43;;;;;;;0.05;0.05;;;;;;;18.85;65.41;101337.78;7363337;19;20018;-63
2022/08/01 00:46:08;;;;;;;0.00;0.00;;;;;;;18.76;65.56;101336.44;7361095;19;20033;-63
2022/08/01 00:48:34;;;;;;;0.00;0.00;;;;;;;18.70;64.52;101336.69;7363552;19;20024;-62
2022/08/01 00:50:59;;;;;;;0.10;0.10;;;;;;;18.62;64.64;101333.53;7362136;19;20021;-62
2022/08/01 00:53:25;;;;;;;0.10;0.10;;;;;;;18.56;63.73;101329.38;7362769;19;20010;-63
2022/08/01 00:55:51;;;;;;;0.10;0.10;;;;;;;18.52;66.28;101325.16;7358567;19;20010;-63
2022/08/01 00:58:17;;;;;;;0.00;0.00;;;;;;;18.49;65.86;101327.09;7364688;19;20699;-62
2022/08/01 01:00:42;;;;;;;0.00;0.00;;;;;;;18.45;65.78;101336.97;7364681;19;21454;-63
2022/08/01 01:03:08;;;;;;;0.10;0.10;;;;;;;18.41;66.36;101330.94;7364932;19;20006;-63
2022/08/01 01:05:44;;;;;;;0.00;0.00;;;;;;;18.34;66.23;101333.91;7364217;19;20010;-62
2022/08/01 01:08:22;;;;;;;0.00;0.00;;;;;;;18.33;65.70;101330.41;7365111;19;20023;-62
2022/08/01 01:11:00;;;;;;;0.10;0.10;;;;;;;18.27;65.79;101328.06;7361430;19;20652;-62
2022/08/01 01:13:40;;;;;;;0.00;0.00;;;;;;;18.20;65.87;101333.66;7362030;19;20030;-62
2022/08/01 01:16:10;;;;;;;0.00;0.00;;;;;;;18.13;65.68;101335.72;7359261;19;20097;-63
2022/08/01 01:18:41;;;;;;;0.10;0.10;;;;;;;18.07;65.53;101338.66;7359327;19;20003;-62
2022/08/01 01:21:18;;;;;;;0.00;0.00;;;;;;;17.98;64.71;101339.91;7360916;19;20007;-63
2022/08/01 01:24:14;;;;;;;0.03;0.03;;;;;;;17.84;65.17;101319.38;7364133;19;20458;-62
2022/08/01 01:26:45;;;;;;;0.03;0.03;;;;;;;17.80;65.59;101320.44;7257482;19;2004256;-62
2022/08/01 01:29:15;;;;;;;0.00;0.00;;;;;;;17.75;65.96;101313.63;7363800;19;20514;-62
2022/08/01 01:31:51;;;;;;;0.00;0.00;;;;;;;17.62;65.57;101306.19;7364575;19;20007;-62
2022/08/01 01:34:19;;;;;;;0.00;0.00;;;;;;;17.61;66.85;101314.19;7363588;19;20010;-63
2022/08/01 01:36:47;;;;;;;0.00;0.00;;;;;;;17.55;66.29;101310.00;7363011;19;20355;-62
2022/08/01 01:39:14;;;;;;;;;;;;;;;17.51;64.59;101310.19;7365424;19;20003;-63
2022/08/01 01:41:41;;;;;;;0.03;0.03;;;;;;;17.47;65.48;101319.16;7363800;19;19918;-63
2022/08/01 01:44:09;;;;;;;0.00;0.00;;;;;;;17.44;65.83;101314.03;7362797;19;20002;-63
2022/08/01 01:46:35;;;;;;;0.00;0.00;;;;;;;17.37;65.60;101298.41;7354875;19;20002;-62
2022/08/01 01:49:02;;;;;;;0.00;0.00;;;;;;;17.32;66.73;101303.03;7364320;19;20018;-63
2022/08/01 01:51:29;;;;;;;0.00;0.00;;;;;;;17.28;66.32;101304.06;7363498;19;20023;-62
2022/08/01 01:53:56;;;;;;;0.00;0.00;;;;;;;17.23;66.11;101305.19;7363859;19;20018;-62
2022/08/01 01:56:24;;;;;;;0.10;0.10;;;;;;;17.18;67.00;101308.00;7364667;19;20013;-62
2022/08/01 01:58:56;;;;;;;0.00;0.00;;;;;;;17.15;65.22;101308.16;7354373;19;20053;-63
2022/08/01 02:01:25;;;;;;;0.00;0.00;;;;;;;17.09;65.65;101313.69;7363338;19;20017;-62
2022/08/01 02:03:53;;;;;;;0.00;0.00;;;;;;;17.04;66.33;101313.00;7363410;19;20022;-62
2022/08/01 02:06:21;;;;;;;0.10;0.10;;;;;;;17.02;66.25;101310.41;7361281;19;20007;-63
2022/08/01 02:08:47;;;;;;;0.00;0.00;;;;;;;17.00;66.45;101309.63;7359457;19;20010;-62
2022/08/01 02:11:19;;;;;;;0.00;0.00;;;;;;;16.97;66.66;101308.88;7363736;19;20057;-62
2022/08/01 02:13:58;;;;;;;0.10;0.10;;;;;;;16.93;65.29;101304.63;7361487;19;20018;-63
2022/08/01 02:16:31;;;;;;;0.00;0.00;;;;;;;16.92;64.97;101309.06;7363372;19;20022;-62
2022/08/01 02:18:57;;;;;;;0.00;0.00;;;;;;;16.84;65.66;101301.47;7361144;19;20018;-62
2022/08/01 02:21:51;;;;;;;0.00;0.00;;;;;;;16.83;64.85;101301.53;7362888;19;20026;-63
2022/08/01 02:24:20;;;;;;;0.00;0.00;;;;;;;16.79;65.84;101306.06;7258245;19;2004090;-62
2022/08/01 02:26:52;;;;;;;0.00;0.00;;;;;;;16.78;65.64;101309.63;7362690;19;20019;-62
2022/08/01 02:29:23;;;;;;;0.05;0.05;;;;;;;16.60;65.88;101270.72;7362042;19;20825;-62
2022/08/01 02:31:54;;;;;;;0.00;0.00;;;;;;;16.74;66.19;101293.97;7357775;19;21071;-63
2022/08/01 02:34:22;;;;;;;0.10;0.10;;;;;;;16.72;65.24;101293.16;7363068;19;20042;-62
2022/08/01 02:36:48;;;;;;;;;;;;;;;16.69;64.81;101288.84;7360425;19;20785;-62
2022/08/01 02:39:17;;;;;;;0.00;0.00;;;;;;;16.66;65.97;101288.94;7356339;19;19926;-62
2022/08/01 02:41:47;;;;;;;0.00;0.00;;;;;;;16.55;65.58;101270.03;7362595;19;20018;-63
2022/08/01 02:44:23;;;;;;;0.10;0.10;;;;;;;16.63;65.63;101283.81;7359688;19;20010;-62
2022/08/01 02:46:57;;;;;;;0.00;0.00;;;;;;;16.61;65.50;101285.63;7360284;19;20011;-63
2022/08/01 02:49:25;;;;;;;0.00;0.00;;;;;;;16.57;65.64;101289.28;7361601;19;20006;-62
2022/08/01 02:51:54;;;;;;;0.00;0.00;;;;;;;16.57;65.95;101291.94;7358714;19;20017;-62
2022/08/01 02:54:21;;;;;;;0.00;0.00;;;;;;;16.55;65.01;101286.72;7361534;19;20153;-62
2022/08/01 02:56:48;;;;;;;0.00;0.00;;;;;;;16.53;66.48;101285.94;7357666;19;20046;-62
2022/08/01 02:59:18;;;;;;;0.10;0.10;;;;;;;16.55;65.43;101293.78;7360279;19;20018;-62
2022/08/01 03:01:47;;;;;;;0.10;0.10;;;;;;;16.54;65.93;101281.50;7360030;19;21458;-62
2022/08/01 03:04:13;;;;;;;0.00;0.00;;;;;;;16.47;66.18;101272.97;7350559;19;20033;-63
2022/08/01 03:06:40;;;;;;;0.00;0.00;;;;;;;16.49;65.88;101273.78;7361742;19;20029;-62
2022/08/01 03:09:07;;;;;;;0.00;0.00;;;;;;;16.48;66.20;101268.56;7361118;19;20138;-63
2022/08/01 03:11:34;;;;;;;;;;;;;;;16.48;65.31;101279.97;7358593;19;20002;-62
2022/08/01 03:14:04;;;;;;;0.00;0.00;;;;;;;16.45;65.19;101281.84;7362807;19;19918;-62
2022/08/01 03:16:33;;;;;;;0.00;0.00;;;;;;;16.42;65.79;101284.59;7361912;19;20062;-62
2022/08/01 03:19:00;;;;;;;0.00;0.00;;;;;;;16.39;65.56;101279.47;7353104;19;20026;-62
2022/08/01 03:21:27;;;;;;;0.00;0.00;;;;;;;16.37;64.99;101282.13;7358130;19;20027;-62
2022/08/01 03:23:56;;;;;;;0.00;0.00;;;;;;;16.32;64.97;101278.81;7360718;19;20051;-62
2022/08/01 03:26:27;;;;;;;0.00;0.00;;;;;;;16.32;66.48;101284.97;7359785;19;20378;-62
2022/08/01 03:28:56;;;;;;;0.00;0.00;;;;;;;16.31;65.73;101288.50;7363815;19;20440;-63
2022/08/01 03:31:23;;;;;;;0.00;0.00;;;;;;;16.28;65.74;101278.09;7362017;19;20006;-63
2022/08/01 03:33:49;;;;;;;0.00;0.00;;;;;;;16.16;65.91;101265.34;7362132;19;20010;-62
2022/08/01 03:36:15;;;;;;;0.00;0.00;;;;;;;16.20;65.79;101274.84;7361697;19;21213;-65
2022/08/01 03:38:44;;;;;;;0.00;0.00;;;;;;;16.23;67.94;101287.94;7359477;19;20110;-62
2022/08/01 03:41:21;;;;;;;0.00;0.00;;;;;;;16.21;66.25;101287.09;7363358;19;20018;-62
2022/08/01 03:43:52;;;;;;;0.00;0.00;;;;;;;16.19;66.30;101283.69;7361136;19;20024;-62
2022/08/01 03:46:22;;;;;;;0.00;0.00;;;;;;;16.18;66.99;101289.88;7364755;19;20491;-62
2022/08/01 03:48:48;;;;;;;0.00;0.00;;;;;;;16.14;66.77;101283.00;7367465;19;20007;-62
2022/08/01 03:51:15;;;;;;;0.10;0.10;;;;;;;16.07;67.25;101278.88;7370288;19;20434;-62
2022/08/01 03:53:44;;;;;;;0.00;0.00;;;;;;;16.08;66.35;101291.13;7367155;19;20011;-63
2022/08/01 03:56:12;;;;;;;0.00;0.00;;;;;;;16.01;66.42;101279.94;7367561;19;20010;-63
2022/08/01 03:58:42;;;;;;;0.00;0.00;;;;;;;15.93;66.05;101274.09;7366559;19;20018;-63
2022/08/01 04:01:09;;;;;;;0.00;0.00;;;;;;;15.96;66.08;101284.50;7368421;19;20811;-63
2022/08/01 04:03:34;;;;;;;0.00;0.00;;;;;;;15.92;67.90;101289.97;7367998;19;20026;-63
2022/08/01 04:06:04;;;;;;;0.00;0.00;;;;;;;15.90;66.63;101297.03;7366269;19;20018;-63
2022/08/01 04:08:40;;;;;;;0.00;0.00;;;;;;;15.83;66.88;101276.19;7367330;19;20023;-65
2022/08/01 04:11:07;;;;;;;0.10;0.10;;;;;;;15.81;67.48;101283.31;7367992;19;20018;-63
2022/08/01 04:13:33;;;;;;;0.00;0.00;;;;;;;15.80;67.11;101286.81;7363380;19;20019;-62
2022/08/01 04:15:58;;;;;;;0.00;0.00;;;;;;;15.78;66.68;101288.66;7367492;19;20010;-62
2022/08/01 04:18:24;;;;;;;0.00;0.00;;;;;;;15.76;66.94;101290.50;7366200;19;20763;-62
2022/08/01 04:20:50;;;;;;;0.00;0.00;;;;;;;15.73;67.18;101285.31;7366751;19;20025;-62
2022/08/01 04:23:17;;;;;;;0.00;0.00;;;;;;;15.63;67.62;101270.75;7368764;19;20078;-62
2022/08/01 04:25:45;;;;;;;0.00;0.00;;;;;;;15.64;67.42;101264.56;7365732;19;20462;-62
2022/08/01 04:28:16;;;;;;;0.00;0.00;;;;;;;15.68;67.91;101279.38;7366405;19;20012;-65
2022/08/01 04:30:44;;;;;;;0.00;0.00;;;;;;;15.65;67.66;101271.56;7366871;19;20010;-64
2022/08/01 04:33:13;;;;;;;0.00;0.00;;;;;;;15.64;67.65;101269.84;7367520;19;20030;-63
2022/08/01 04:35:40;;;;;;;0.00;0.00;;;;;;;15.60;67.34;101268.19;7364627;19;20061;-62
2022/08/01 04:38:08;;;;;;;0.00;0.00;;;;;;;15.59;66.42;101261.22;7366168;19;20083;-63
2022/08/01 04:40:35;;;;;;;;;;;;;;;15.58;66.16;101260.34;7368755;19;20456;-63
2022/08/01 04:43:01;;;;;;;0.00;0.00;;;;;;;15.54;67.14;101258.75;7362761;19;19923;-63
2022/08/01 04:45:27;;;;;;;0.08;0.08;;;;;;;15.47;67.86;101251.97;7368827;19;20033;-63
2022/08/01 04:47:53;;;;;;;0.00;0.00;;;;;;;15.49;67.51;101254.53;7367265;19;20074;-62
2022/08/01 04:50:21;;;;;;;0.10;0.10;;;;;;;15.46;67.68;101259.91;7366403;19;20078;-62
2022/08/01 04:52:47;;;;;;;0.00;0.00;;;;;;;15.41;67.22;101246.94;7366418;19;20027;-62
2022/08/01 04:55:12;;;;;;;0.00;0.00;;;;;;;15.40;66.74;101250.44;7365716;19;20014;-62
2022/08/01 04:57:42;;;;;;;0.00;0.00;;;;;;;15.39;67.65;101248.72;7366175;19;20501;-65
2022/08/01 05:00:08;;;;;;;0.00;0.00;;;;;;;15.37;67.49;101247.94;7366514;19;20466;-65
2022/08/01 05:02:34;;;;;;;0.10;0.10;;;;;;;15.35;68.54;101241.00;7363703;19;20022;-63
2022/08/01 05:04:59;;;;;;;0.00;0.00;;;;;;;15.34;67.75;101245.41;7366283;19;20033;-62
2022/08/01 05:07:25;;;;;;;0.00;0.00;;;;;;;15.28;69.73;101240.34;7365864;19;20010;-63
2022/08/01 05:09:50;;;;;;;0.00;0.00;;;;;;;15.31;69.73;101246.38;7364243;19;20002;-62
2022/08/01 05:12:17;;;;;;;0.00;0.00;;;;;;;15.28;69.76;101246.47;7364552;19;20006;-62
2022/08/01 05:14:42;;;;;;;0.00;0.00;;;;;;;15.20;69.56;101237.94;7366604;19;20470;-65
2022/08/01 05:17:08;;;;;;;0.00;0.00;;;;;;;15.26;69.92;101258.81;7367101;19;20022;-62
2022/08/01 05:19:36;;;;;;;0.00;0.00;;;;;;;15.26;70.24;101263.22;7361888;19;20477;-63
2022/08/01 05:22:04;;;;;;;;;;;;;;;15.26;67.77;101263.22;7367102;19;20030;-62
2022/08/01 05:24:31;;;;;;;0.10;0.10;;;;;;;15.22;69.94;101266.88;7366923;19;19933;-62
2022/08/01 05:26:57;;;;;;;0.00;0.00;;;;;;;15.22;70.00;101265.09;7364120;19;20737;-63
2022/08/01 05:29:24;;;;;;;0.00;0.00;;;;;;;15.15;70.67;101260.91;7362526;19;21360;-63
2022/08/01 05:31:49;;;;;;;0.00;0.00;;;;;;;15.23;71.01;101263.31;7362076;19;20027;-62
2022/08/01 05:34:15;;;;;;;0.08;0.08;;;;;;;15.23;71.02;101266.81;7364900;19;20010;-62
2022/08/01 05:36:41;;;;;;;0.00;0.00;;;;;;;15.26;71.24;101271.13;7362478;19;20007;-63
2022/08/01 05:39:07;;;;;;;0.00;0.00;;;;;;;15.27;70.81;101262.31;7366277;19;20146;-62
2022/08/01 05:41:32;;;;;;;0.00;0.00;;;;;;;15.24;70.09;101259.78;7365576;19;20011;-62
2022/08/01 05:43:58;;;;;;;0.00;0.00;;;;;;;15.28;70.62;101254.34;7362885;19;25431;-62
2022/08/01 05:46:23;;;;;;;0.00;0.00;;;;;;;15.21;70.65;101237.06;7365573;19;20010;-62
2022/08/01 05:48:49;;;;;;;0.00;0.00;;;;;;;15.29;70.72;101248.19;7365936;19;20334;-65
2022/08/01 05:51:14;;;;;;;0.00;0.00;;;;;;;15.23;71.28;101242.28;7364251;19;20010;-63
2022/08/01 05:53:40;;;;;;;0.00;0.00;;;;;;;15.32;70.83;101248.09;7365195;19;20552;-65
2022/08/01 05:56:05;;;;;;;0.00;0.00;;;;;;;15.35;71.09;101243.63;7365238;19;20606;-63
2022/08/01 05:58:31;;;;;;;0.00;0.00;;;;;;;15.34;70.93;101234.00;7354183;19;20007;-62
2022/08/01 06:00:57;;;;;;;0.00;0.00;;;;;;;15.36;71.02;101235.69;7362992;19;20025;-63
2022/08/01 06:03:23;;;;;;;0.08;0.08;;;;;;;15.30;70.94;101215.69;7363936;19;20011;-62
2022/08/01 06:05:48;;;;;;;0.00;0.00;;;;;;;15.43;71.21;101228.44;7365426;19;20010;-65
2022/08/01 06:08:13;;;;;;;0.00;0.00;;;;;;;15.46;71.43;101225.69;7361315;19;20006;-64
2022/08/01 06:10:39;;;;;;;0.10;0.10;;;;;;;15.48;70.86;101221.25;7364390;19;20374;-63
2022/08/01 06:13:04;;;;;;;0.08;0.08;;;;;;;15.51;71.02;101226.38;7358903;19;20018;-63
2022/08/01 06:15:31;;;;;;;0.00;0.00;;;;;;;15.51;70.77;101229.91;7363144;19;20039;-62
2022/08/01 06:17:56;;;;;;;0.00;0.00;;;;;;;15.55;70.52;101243.78;7361907;19;20154;-62
2022/08/01 06:20:22;;;;;;;0.05;0.05;;;;;;;15.51;71.49;101226.38;7362572;19;20014;-62
2022/08/01 06:22:47;;;;;;;0.00;0.00;;;;;;;15.61;70.82;101235.69;7361778;19;20121;-65
2022/08/01 06:25:13;;;;;;;0.00;0.00;;;;;;;15.54;71.07;101208.72;7361451;19;20014;-62
2022/08/01 06:27:38;;;;;;;0.00;0.00;;;;;;;15.67;71.22;101227.63;7360389;19;20006;-62
2022/08/01 06:30:07;;;;;;;0.00;0.00;;;;;;;15.71;71.40;101229.25;7361314;19;20018;-63
2022/08/01 06:32:32;;;;;;;0.00;0.00;;;;;;;15.74;71.24;101221.22;7363613;19;20014;-63
2022/08/01 06:34:58;;;;;;;0.10;0.10;;;;;;;15.80;71.47;101222.75;7357577;19;20339;-62
2022/08/01 06:37:23;;;;;;;0.10;0.10;;;;;;;15.84;71.28;101211.22;7364788;19;20034;-61
2022/08/01 06:39:49;;;;;;;0.10;0.10;;;;;;;15.89;71.22;101214.53;7362339;19;20563;-62
2022/08/01 06:42:15;;;;;;;0.10;0.10;;;;;;;15.96;71.77;101216.00;7362363;19;20066;-63
2022/08/01 06:44:41;;;;;;;0.00;0.00;;;;;;;16.03;71.77;101220.16;7359972;19;20019;-62
2022/08/01 06:47:06;;;;;;;0.03;0.03;;;;;;;16.10;71.48;101212.88;7361690;19;20018;-62
2022/08/01 06:49:31;;;;;;;0.10;0.10;;;;;;;16.20;71.59;101208.13;7361419;19;20020;-62
2022/08/01 06:51:57;;;;;;;0.00;0.00;;;;;;;16.29;71.18;101213.06;7357960;19;20010;-62
2022/08/01 06:54:22;;;;;;;0.00;0.00;;;;;;;16.39;71.33;101221.47;7360254;19;20015;-62
2022/08/01 06:56:48;;;;;;;0.00;0.00;;;;;;;16.47;71.17;101216.75;7363496;19;20014;-62
2022/08/01 06:59:13;;;;;;;0.03;0.03;;;;;;;16.43;71.20;101196.72;7357828;19;20049;-62
2022/08/01 07:01:38;;;;;;;0.00;0.00;;;;;;;16.64;70.53;101222.22;7363377;19;20732;-62
2022/08/01 07:04:05;;;;;;;0.10;0.10;;;;;;;16.71;70.78;101218.44;7361281;19;20097;-60
2022/08/01 07:06:30;;;;;;;0.10;0.10;;;;;;;16.79;70.23;101208.47;7351739;19;22383;-62
2022/08/01 07:08:56;;;;;;;0.10;0.10;;;;;;;16.76;70.48;101191.91;7360934;19;20014;-61
2022/08/01 07:11:23;;;;;;;0.00;0.00;;;;;;;16.82;70.64;101195.13;7358772;19;20017;-62
2022/08/01 07:13:49;;;;;;;0.00;0.00;;;;;;;17.02;70.86;101211.94;7361764;19;20014;-62
2022/08/01 07:16:16;;;;;;;0.05;0.05;;;;;;;17.08;70.14;101201.09;7360758;19;20024;-62
2022/08/01 07:18:42;;;;;;;0.00;0.00;;;;;;;17.18;70.46;101223.56;7359489;19;20014;-62
2022/08/01 07:21:07;;;;;;;0.08;0.08;;;;;;;17.25;70.48;101222.41;7361855;19;20039;-62
2022/08/01 07:23:34;;;;;;;0.10;0.10;;;;;;;17.31;70.36;101227.41;7362973;19;20030;-62
2022/08/01 07:26:01;;;;;;;0.10;0.10;;;;;;;17.44;70.61;101226.91;7360306;19;20022;-62
2022/08/01 07:28:27;;;;;;;0.00;0.00;;;;;;;17.51;70.20;101223.06;7360319;19;20011;-62
2022/08/01 07:30:52;;;;;;;0.05;0.05;;;;;;;17.60;69.95;101226.16;7361519;19;21967;-62
2022/08/01 07:33:18;;;;;;;0.00;0.00;;;;;;;17.69;69.73;101213.47;7361364;19;20434;-62
2022/08/01 07:35:43;;;;;;;0.00;0.00;;;;;;;17.77;69.78;101221.94;7362023;19;20014;-62
2022/08/01 07:38:08;;;;;;;0.00;0.00;;;;;;;17.85;69.87;101225.97;7360356;19;20018;-62
2022/08/01 07:40:34;;;;;;;0.10;0.10;;;;;;;17.92;69.56;101225.69;7362201;19;20509;-62
2022/08/01 07:43:00;;;;;;;0.00;0.00;;;;;;;17.96;69.48;101216.72;7360457;19;20086;-62
2022/08/01 07:45:26;;;;;;;0.03;0.03;;;;;;;17.96;69.55;101211.44;7361849;19;20011;-62
2022/08/01 07:47:52;;;;;;;0.00;0.00;;;;;;;18.08;69.73;101216.16;7360783;19;20011;-62
2022/08/01 07:50:18;;;;;;;0.10;0.10;;;;;;;18.13;69.61;101206.22;7361027;19;20042;-62
2022/08/01 07:52:43;;;;;;;0.00;0.00;;;;;;;18.18;69.47;101206.88;7361976;19;20003;-62
2022/08/01 07:55:10;;;;;;;0.00;0.00;;;;;;;18.23;69.28;101199.56;7361280;19;20018;-62
2022/08/01 07:57:35;;;;;;;0.00;0.00;;;;;;;18.25;69.49;101197.75;7359123;19;20458;-62
2022/08/01 08:00:04;;;;;;;0.10;0.10;;;;;;;18.28;69.59;101196.72;7361655;19;20027;-63
2022/08/01 08:02:29;;;;;;;0.10;0.10;;;;;;;18.30;69.55;101194.88;7359362;19;20134;-62
2022/08/01 08:04:55;;;;;;;0.05;0.05;;;;;;;18.32;69.35;101199.16;7358396;19;20773;-62
2022/08/01 08:07:20;;;;;;;0.00;0.00;;;;;;;18.34;69.14;101191.13;7361168;19;20011;-62
2022/08/01 08:09:46;;;;;;;0.00;0.00;;;;;;;18.36;69.24;101195.44;7360318;19;20015;-62
2022/08/01 08:12:12;;;;;;;0.00;0.00;;;;;;;18.36;69.31;101190.16;7361698;19;20014;-62
2022/08/01 08:14:37;;;;;;;0.10;0.10;;;;;;;18.40;69.45;101189.09;7360162;19;20019;-62
2022/08/01 08:17:03;;;;;;;0.00;0.00;;;;;;;18.45;69.72;101187.97;7358144;19;20014;-62
2022/08/01 08:19:29;;;;;;;0.00;0.00;;;;;;;18.47;69.83;101187.00;7360883;19;20030;-62
2022/08/01 08:21:54;;;;;;;0.10;0.10;;;;;;;18.51;69.51;101180.63;7361379;19;20049;-62
2022/08/01 08:24:20;;;;;;;0.00;0.00;;;;;;;18.55;69.16;101179.56;7359078;19;20336;-62
2022/08/01 08:26:47;;;;;;;0.10;0.10;;;;;;;18.60;69.26;101181.94;7358242;19;20014;-62
2022/08/01 08:29:12;;;;;;;0.10;0.10;;;;;;;18.65;68.62;101172.91;7358601;19;20531;-62
2022/08/01 08:31:38;;;;;;;0.10;0.10;;;;;;;18.69;68.16;101170.97;7363318;19;20018;-62
2022/08/01 08:34:03;;;;;;;0.10;0.10;;;;;;;18.74;68.34;101163.66;7363539;19;20035;-62
2022/08/01 08:36:29;;;;;;;0.05;0.05;;;;;;;18.75;68.73;101154.78;7365113;19;20018;-62
2022/08/01 08:38:54;;;;;;;0.00;0.00;;;;;;;18.82;68.56;101155.34;7364635;19;20034;-62
2022/08/01 08:41:21;;;;;;;0.10;0.10;;;;;;;18.84;67.80;101154.34;7361118;19;20011;-62
2022/08/01 08:43:47;;;;;;;0.10;0.10;;;;;;;18.83;67.87;101144.69;7362130;19;20011;-62
2022/08/01 08:46:14;;;;;;;0.10;0.10;;;;;;;19.00;67.16;101164.16;7367133;19;20409;-62
2022/08/01 08:48:41;;;;;;;0.10;0.10;;;;;;;19.02;66.37;101151.72;7361043;19;20026;-61
2022/08/01 08:51:08;;;;;;;0.00;0.00;;;;;;;19.11;66.94;101154.75;7366772;19;20467;-62
2022/08/01 08:53:35;;;;;;;;;;;;;;;19.24;67.55;101147.03;7364436;19;20010;-62
2022/08/01 08:56:02;;;;;;;0.00;0.00;;;;;;;19.26;65.91;101150.47;7365313;19;19960;-62
2022/08/01 08:58:28;;;;;;;0.00;0.00;;;;;;;19.32;66.12;101141.34;7362427;19;20030;-62
2022/08/01 09:00:54;;;;;;;0.10;0.10;;;;;;;19.43;65.89;101142.47;7366219;19;20014;-62
2022/08/01 09:03:20;;;;;;;0.00;0.00;;;;;;;19.55;66.00;101140.13;7367287;19;20031;-62
2022/08/01 09:05:45;;;;;;;0.00;0.00;;;;;;;19.67;65.36;101144.81;7365494;19;20011;-62
2022/08/01 09:08:12;;;;;;;0.10;0.10;;;;;;;19.81;66.37;101136.09;7365261;19;20010;-62
2022/08/01 09:10:37;;;;;;;0.00;0.00;;;;;;;19.91;64.01;101122.25;7365867;19;20010;-62
2022/08/01 09:13:04;;;;;;;0.10;0.10;;;;;;;20.16;64.72;101123.56;7366169;19;20015;-62
2022/08/01 09:15:46;;;;;;;0.03;0.03;;;;;;;20.47;65.47;101131.50;7365803;19;20481;-61
2022/08/01 09:18:27;;;;;;;0.03;0.03;;;;;;;20.69;64.72;101128.50;7364260;19;20006;-62
2022/08/01 09:21:16;;;;;;;0.10;0.10;;;;;;;20.92;64.79;101135.09;7362835;19;20003;-62
2022/08/01 09:23:58;;;;;;;0.10;0.10;;;;;;;21.08;62.95;101131.53;7367978;19;20015;-62
2022/08/01 09:26:32;;;;;;;0.10;0.10;;;;;;;21.30;62.77;101131.13;7361728;19;20006;-62
2022/08/01 09:29:02;;;;;;;0.10;0.10;;;;;;;21.37;60.64;101122.69;7366868;19;20007;-62
2022/08/01 09:31:29;;;;;;;0.10;0.10;;;;;;;21.48;60.04;101125.53;7364179;19;20014;-62
2022/08/01 09:34:00;;;;;;;0.10;0.10;;;;;;;21.60;59.93;101113.31;7364706;19;20115;-62
2022/08/01 09:36:42;;;;;;;0.00;0.00;;;;;;;21.71;60.25;101120.63;7363931;19;20021;-62
2022/08/01 09:39:19;;;;;;;0.10;0.10;;;;;;;21.94;60.67;101112.03;7364905;19;20015;-62
2022/08/01 09:41:45;;;;;;;0.10;0.10;;;;;;;22.05;58.61;101110.47;7362852;19;20017;-62
2022/08/01 09:44:11;;;;;;;0.00;0.00;;;;;;;22.22;58.07;101104.97;7366211;19;20019;-62
2022/08/01 09:46:49;;;;;;;0.10;0.10;;;;;;;22.45;59.78;101091.00;7362678;19;20443;-62
2022/08/01 09:49:26;;;;;;;0.10;0.10;;;;;;;22.59;57.18;101099.88;7365621;19;20018;-62
2022/08/01 09:51:51;;;;;;;0.03;0.03;;;;;;;22.71;56.71;101097.28;7361062;19;20015;-62
2022/08/01 09:54:28;;;;;;;0.10;0.10;;;;;;;22.99;57.87;101090.94;7365626;19;20014;-62
2022/08/01 09:56:54;;;;;;;0.10;0.10;;;;;;;23.00;56.63;101073.16;7364431;19;20010;-62
2022/08/01 09:59:19;;;;;;;0.10;0.10;;;;;;;23.18;55.71;101084.38;7361638;19;20069;-62
2022/08/01 10:01:47;;;;;;;0.10;0.10;;;;;;;23.32;55.09;101081.59;7365660;19;20006;-62
2022/08/01 10:04:15;;;;;;;0.10;0.10;;;;;;;23.49;56.65;101083.06;7361559;19;20026;-61
2022/08/01 10:06:43;;;;;;;0.10;0.10;;;;;;;23.54;55.13;101064.94;7363938;19;20006;-62
2022/08/01 10:09:10;;;;;;;0.10;0.10;;;;;;;23.65;53.83;101059.69;7363033;19;20094;-62
2022/08/01 10:11:38;;;;;;;0.00;0.00;;;;;;;23.77;55.95;101055.28;7362238;19;20018;-62
2022/08/01 10:14:05;;;;;;;0.10;0.10;;;;;;;23.98;53.47;101063.56;7364427;19;20023;-62
2022/08/01 10:16:33;;;;;;;0.00;0.00;;;;;;;24.28;54.72;101071.09;7364353;19;20006;-62
2022/08/01 10:18:59;;;;;;;0.10;0.10;;;;;;;24.41;53.80;101073.75;7363369;19;20035;-62
2022/08/01 10:21:27;;;;;;;0.10;0.10;;;;;;;24.52;52.36;101058.63;7359723;19;20661;-62
2022/08/01 10:23:54;;;;;;;0.00;0.00;;;;;;;24.72;52.25;101069.63;7360281;19;20314;-62
2022/08/01 10:26:21;;;;;;;0.10;0.10;;;;;;;24.81;51.84;101068.94;7360574;19;20026;-62
2022/08/01 10:28:48;;;;;;;0.10;0.10;;;;;;;24.82;52.21;101047.44;7362923;19;20007;-62
2022/08/01 10:31:14;;;;;;;0.10;0.10;;;;;;;24.97;52.33;101042.72;7363300;19;20006;-62
2022/08/01 10:33:41;;;;;;;0.10;0.10;;;;;;;25.25;53.46;101045.94;7362682;19;20856;-61
2022/08/01 10:36:08;;;;;;;0.10;0.10;;;;;;;25.51;50.24;101041.19;7362559;19;20037;-62
2022/08/01 10:38:35;;;;;;;0.00;0.00;;;;;;;25.72;50.45;101043.97;7356706;19;20031;-62
2022/08/01 10:41:02;;;;;;;0.00;0.00;;;;;;;25.87;49.19;101037.41;7364833;19;20137;-62
2022/08/01 10:43:27;;;;;;;0.10;0.10;;;;;;;25.90;50.92;101037.13;7362176;19;20019;-62
2022/08/01 10:45:54;;;;;;;0.10;0.10;;;;;;;25.98;50.38;101032.00;7362386;19;20007;-62
2022/08/01 10:48:19;;;;;;;0.00;0.00;;;;;;;26.09;50.10;101034.66;7363475;19;20014;-62
2022/08/01 10:50:48;;;;;;;0.10;0.10;;;;;;;26.28;48.29;101030.47;7365249;19;20447;-62
2022/08/01 10:53:25;;;;;;;0.10;0.10;;;;;;;26.53;50.07;101027.44;7362582;19;21060;-62
2022/08/01 10:55:56;;;;;;;0.00;0.00;;;;;;;26.58;47.75;101027.91;7363233;19;20038;-61
2022/08/01 10:58:37;;;;;;;0.10;0.10;;;;;;;26.77;49.40;101019.16;7364573;19;20006;-62
2022/08/01 11:01:15;;;;;;;0.10;0.10;;;;;;;26.90;50.37;101019.78;7361926;19;20039;-62
2022/08/01 11:03:55;;;;;;;0.10;0.10;;;;;;;26.95;48.53;101016.69;7361632;19;20091;-62
2022/08/01 11:06:42;;;;;;;0.10;0.10;;;;;;;27.03;50.44;101005.31;7363560;19;20014;-62
2022/08/01 11:09:11;;;;;;;0.10;0.10;;;;;;;27.03;47.93;101005.31;7363086;19;20014;-62
2022/08/01 11:11:56;;;;;;;0.10;0.10;;;;;;;27.06;49.96;101003.22;7362913;19;20014;-62
2022/08/01 11:14:21;;;;;;;0.10;0.10;;;;;;;26.87;48.77;100995.09;7362099;19;20026;-62
2022/08/01 11:16:47;;;;;;;0.00;0.00;;;;;;;26.89;46.29;100998.47;7360048;19;20006;-62
2022/08/01 11:19:13;;;;;;;0.10;0.10;;;;;;;26.85;45.83;100997.03;7358777;19;20745;-62
2022/08/01 11:21:54;;;;;;;0.10;0.10;;;;;;;26.87;48.08;100989.75;7364714;19;20015;-62
2022/08/01 11:24:48;;;;;;;0.10;0.10;;;;;;;26.79;48.66;100987.72;7362411;19;20572;-62
2022/08/01 11:27:30;;;;;;;0.10;0.10;;;;;;;26.69;46.27;100980.59;7258298;19;2004273;-62
2022/08/01 11:30:07;;;;;;;0.10;0.10;;;;;;;26.63;47.97;100977.47;7362800;19;20812;-62